Nearby METAR Reports

METAR is the scheduled surface weather observation taken hourly at civil and military airport locations.

METAR is an acronym from the French language and roughly translates as Aviation Routine Weather Report.

 

EGPL - Benbecula Island, United Kingdom
Distance from station: WNW 41mi, 66km
Updated: 08/07/2020 23:20
Clear
Clear
 Wind from N
Wind: N 6 mph , 9 km/h
Temperature: 10°C
Wind Chill: 9°C
Dew Point: 8°C
Humidity: 88%
Barometer: 1015 hPa
Clouds: Clear
Visibility: 6 miles , 10 km
2020/07/08 22:20 EGPL 082220Z AUTO 35005KT 9999 NCD 10/08 Q1015
EGPU - Tiree Island, United Kingdom
Distance from station: SSW 56mi, 90km
Updated: 08/07/2020 23:20
Clear
Clear
 Wind from N
Wind: N 12 mph , 19 km/h
Temperature: 11°C
Dew Point: 7°C
Humidity: 77%
Barometer: 1014 hPa
Clouds: Clear
Visibility: 6 miles , 10 km
2020/07/08 22:20 EGPU 082220Z AUTO 01010KT 9999 NCD 11/07 Q1014
 
EGEO - Oban Airport, United Kingdom
Distance from station: SE 65mi, 105km
Updated: 02/07/2020 15:50
NOT Current
Partly cloudy
Partly cloudy
 Wind from W
Wind: W 14 mph , 22 km/h
Temperature: 14°C
Dew Point: 9°C
Humidity: 72%
Barometer: 1011 hPa
Clouds: Partly cloudy
Visibility: 6 miles , 10 km
Cloud details: Partly cloudy 1067 m
2020/07/02 14:50 EGEO 021450Z 28012KT 9999 SCT035 14/09 Q1011
EGPO - Stornoway, United Kingdom
Distance from station: 0 66mi, 106km
Updated: 08/07/2020 23:20
Partly cloudy
Partly cloudy
 Wind from NW
Wind: NW 3 mph , 6 km/h
Temperature: 11°C
Dew Point: 8°C
Humidity: 82%
Barometer: 1015 hPa
Clouds: Partly cloudy
Visibility: 6 miles , 10 km
Cloud details: Partly cloudy 1250 m
2020/07/08 22:20 EGPO 082220Z AUTO 31003KT 9999 SCT041/// 11/08 Q1015
 
EGPE - Inverness/Dalcro, United Kingdom
Distance from station: ENE 88mi, 141km
Updated: 08/07/2020 23:20
Mostly cloudy
Mostly cloudy
 Wind from NNW
Wind: NNW 6 mph , 9 km/h
Temperature: 12°C
Dew Point: 11°C
Humidity: 94%
Barometer: 1014 hPa
Clouds: Mostly cloudy
Visibility: 6 miles , 10 km
Cloud details: Mostly cloudy 1494 m
2020/07/08 22:20 EGPE 082220Z AUTO 33005KT 9999 BKN049/// 12/11 Q1014
EGQA - Tain Range (saws, United Kingdom
Distance from station: ENE 97mi, 156km
Updated: 08/07/2020 19:50
NOT Current
Partly cloudy
Partly cloudy
 Wind from ENE
Wind: ENE 10 mph , 17 km/h
Clouds: Partly cloudy
Visibility: 6 miles , 10 km
Cloud details: Few Clouds 671 m
Partly cloudy 1067 m
2020/07/08 18:50 EGQA 081850Z 07009KT 9999 FEW022 SCT035 17/// Q1015 RMK BLU
 
EGQK - Kinloss Raf, United Kingdom
Distance from station: ENE 107mi, 171km
Updated: 08/07/2020 22:50
Overcast
Overcast
 Wind from E
Wind: E 7 mph , 11 km/h
Temperature: 12°C
Dew Point: 9°C
Humidity: 82%
Barometer: 1014 hPa
Clouds: Overcast
Visibility: 6 miles , 10 km
Cloud details: Overcast 1402 m
2020/07/08 21:50 EGQK 082150Z AUTO 10006KT 9999 OVC046/// 12/09 Q1014
EGPI - Islay/Port Ellen, United Kingdom
Distance from station: S 110mi, 177km
Updated: 08/07/2020 23:20
Clear
Clear
 Wind from N
Wind: N 6 mph , 9 km/h
Temperature: 8°C
Wind Chill: 6°C
Dew Point: 7°C
Humidity: 93%
Barometer: 1013 hPa
Clouds: Clear
Visibility: 6 miles , 10 km
2020/07/08 22:20 EGPI 082220Z AUTO 35005KT 270V070 9999 NCD 08/07 Q1013
 
EGQS - Lossiemouth Raf, United Kingdom
Distance from station: ENE 117mi, 188km
Updated: 08/07/2020 22:50
Clear
Clear
 Wind from E
Wind: E 5 mph , 7 km/h
Temperature: 12°C
Dew Point: 9°C
Humidity: 82%
Barometer: 1014 hPa
Summary: Clear
Visibility: greater than 7 miles , 10 km
2020/07/08 21:50 EGQS 082150Z 10004KT CAVOK 12/09 Q1014 RMK BLU
EGPF - Glasgow Airport, United Kingdom
Distance from station: SE 121mi, 195km
Updated: 08/07/2020 23:20
Light rain, Thunderstorm
Light rain, Thunderstorm
 Wind from varies
Wind: varies 1 mph , 2 km/h
Temperature: 12°C
Dew Point: 11°C
Humidity: 94%
Barometer: 1014 hPa
Summary: Light rain
Clouds: Thunderstorm
Visibility: 6 miles , 10 km
2020/07/08 22:20 EGPF 082220Z AUTO VRB01KT 9999 -RA //////TCU 12/11 Q1014
 
EGEC - Campbeltown, United Kingdom
Distance from station: SSE 129mi, 207km
Updated: 08/07/2020 09:50
NOT Current
Few Clouds
Few Clouds
 Wind from ESE
Wind: ESE 7 mph , 11 km/h
Temperature: 15°C
Dew Point: 10°C
Humidity: 72%
Barometer: 1015 hPa
Clouds: Few Clouds
Visibility: 6 miles , 10 km
Cloud details: Few Clouds 488 m
2020/07/08 08:50 EGEC 080850Z 12006KT 9999 FEW016 15/10 Q1015
EGPN - Dundee/Riverside, United Kingdom
Distance from station: ESE 137mi, 221km
Updated: 08/07/2020 20:50
NOT Current
Few Clouds
Few Clouds
 Wind from E
Wind: E 6 mph , 9 km/h
Temperature: 13°C
Dew Point: 9°C
Humidity: 77%
Barometer: 1014 hPa
Clouds: Few Clouds
Visibility: 6 miles , 10 km
Cloud details: Few Clouds 914 m
2020/07/08 19:50 EGPN 081950Z 09005KT 9999 FEW030 13/09 Q1014
 
EGPK - Prestwick(Civ/Na, United Kingdom
Distance from station: SSE 139mi, 224km
Updated: 08/07/2020 23:20
Mostly cloudy
Mostly cloudy
 Wind from E
Wind: E 5 mph , 7 km/h
Temperature: 13°C
Dew Point: 12°C
Humidity: 94%
Barometer: 1013 hPa
Clouds: Mostly cloudy
Visibility: 6 miles , 10 km
Cloud details: Mostly cloudy 1067 m
2020/07/08 22:20 EGPK 082220Z 08004KT 9999 BKN035 13/12 Q1013
EGQL - Leuchars Raf, United Kingdom
Distance from station: ESE 145mi, 233km
Updated: 08/07/2020 22:50
Mostly cloudy
Mostly cloudy
 Wind from SSE
Wind: SSE 5 mph , 7 km/h
Temperature: 12°C
Dew Point: 10°C
Humidity: 88%
Barometer: 1014 hPa
Clouds: Mostly cloudy
Visibility: 6 miles , 10 km
Cloud details: Mostly cloudy 853 m
Mostly cloudy 1189 m
2020/07/08 21:50 EGQL 082150Z 15004KT 9999 BKN028 BKN039 12/10 Q1014 RMK BLU
 
EGPH - Edinburgh Airpor, United Kingdom
Distance from station: SE 145mi, 234km
Updated: 08/07/2020 23:20
Few Clouds
Few Clouds
 Wind from WSW
Wind: WSW 3 mph , 6 km/h
Temperature: 11°C
Dew Point: 11°C
Humidity: 100%
Barometer: 1014 hPa
Clouds: Few Clouds
Visibility: 6 miles , 10 km
Cloud details: Few Clouds 1189 m
2020/07/08 22:20 EGPH 082220Z 25003KT 9999 FEW039 11/11 Q1014
EGPC - Wick, United Kingdom
Distance from station: NE 146mi, 234km
Updated: 08/07/2020 23:20
Clear
Clear
 Wind from ESE
Wind: ESE 2 mph , 4 km/h
Temperature: 9°C
Dew Point: 8°C
Humidity: 94%
Barometer: 1015 hPa
Clouds: Clear
Visibility: 6 miles , 10 km
2020/07/08 22:20 EGPC 082220Z AUTO 11002KT 9999 NCD 09/08 Q1015

-

free counters
QR Code Twitter Scottish Weather Network UK Weather Network
Argyll House B & B

Argyll House B & B is situated in North West Skye and is the perfect base to see all that the Isle of Skye has to offer. Bookings are been taken for 2021